createdAt,value
2023-02-03T00:01:06.962Z,11.93
2023-02-03T00:03:36.000Z,10.10
2023-02-03T00:06:05.300Z,7.93
2023-02-03T00:08:33.399Z,6.63
2023-02-03T00:11:01.316Z,15.48
2023-02-03T00:13:29.429Z,14.77
2023-02-03T00:15:57.146Z,9.80
2023-02-03T00:18:24.809Z,12.00
2023-02-03T00:20:53.792Z,11.93
2023-02-03T00:23:21.407Z,11.50
2023-02-03T00:25:49.003Z,13.90
2023-02-03T00:28:16.702Z,9.83
2023-02-03T00:30:44.314Z,13.43
2023-02-03T00:33:11.916Z,13.00
2023-02-03T00:35:40.247Z,13.03
2023-02-03T00:38:09.242Z,12.32
2023-02-03T00:40:36.824Z,12.57
2023-02-03T00:43:04.424Z,12.77
2023-02-03T00:45:32.045Z,9.00
2023-02-03T00:47:59.667Z,14.83
2023-02-03T00:50:27.601Z,12.50
2023-02-03T00:52:55.370Z,11.63
2023-02-03T00:55:24.307Z,10.87
2023-02-03T00:57:51.929Z,12.03
2023-02-03T01:00:20.515Z,10.37
2023-02-03T01:02:48.251Z,11.45
2023-02-03T01:05:15.871Z,10.67
2023-02-03T01:07:43.511Z,11.43
2023-02-03T01:10:12.049Z,11.20
2023-02-03T01:12:41.045Z,10.00
2023-02-03T01:15:09.815Z,7.40
2023-02-03T01:20:05.741Z,13.67
2023-02-03T01:22:33.554Z,12.60
2023-02-03T01:25:01.233Z,11.10
2023-02-03T01:27:28.800Z,11.90
2023-02-03T01:29:57.804Z,11.37
2023-02-03T01:32:25.556Z,10.97
2023-02-03T01:34:53.172Z,10.57
2023-02-03T01:37:20.820Z,14.23
2023-02-03T01:39:48.448Z,10.47
2023-02-03T01:42:16.819Z,8.73
2023-02-03T01:44:47.559Z,9.77
2023-02-03T01:47:23.069Z,10.83
2023-02-03T01:49:56.719Z,8.90
2023-02-03T01:52:24.754Z,10.60
2023-02-03T01:54:55.920Z,8.52
2023-02-03T01:57:27.234Z,9.40
2023-02-03T01:59:57.301Z,12.37
2023-02-03T02:02:26.443Z,10.77
2023-02-03T02:05:00.482Z,9.13
2023-02-03T02:07:28.783Z,7.87
2023-02-03T02:09:57.459Z,6.03
2023-02-03T02:12:25.090Z,11.27
2023-02-03T02:14:52.862Z,7.07
2023-02-03T02:17:45.456Z,12.87
2023-02-03T02:20:39.457Z,8.57
2023-02-03T02:23:38.038Z,10.97
2023-02-03T02:29:13.316Z,5.50
2023-02-03T02:32:04.155Z,8.93
2023-02-03T02:34:44.857Z,14.07
2023-02-03T02:37:22.295Z,5.57
2023-02-03T02:39:57.048Z,6.77
2023-02-03T02:42:31.418Z,7.37
2023-02-03T02:45:07.110Z,8.10
2023-02-03T02:47:36.118Z,7.87
2023-02-03T02:50:08.840Z,8.27
2023-02-03T02:52:41.151Z,9.07
2023-02-03T02:55:24.449Z,11.43
2023-02-03T02:57:55.518Z,10.47
2023-02-03T03:00:23.870Z,4.20
2023-02-03T03:02:52.945Z,6.28
2023-02-03T03:05:20.764Z,8.27
2023-02-03T03:07:55.258Z,9.33
2023-02-03T03:10:27.597Z,7.00
2023-02-03T03:13:00.335Z,10.80
2023-02-03T03:15:31.408Z,9.57
2023-02-03T03:18:05.131Z,9.73
2023-02-03T03:20:34.428Z,10.43
2023-02-03T03:23:06.046Z,10.90
2023-02-03T03:25:40.038Z,7.90
2023-02-03T03:28:14.932Z,8.07
2023-02-03T03:30:43.078Z,10.67
2023-02-03T03:33:12.231Z,9.15
2023-02-03T03:35:46.601Z,10.70
2023-02-03T03:38:20.453Z,7.70
2023-02-03T03:40:54.168Z,6.87
2023-02-03T03:43:24.511Z,7.23
2023-02-03T03:45:57.101Z,10.37
2023-02-03T03:48:31.226Z,8.33
2023-02-03T03:51:03.839Z,11.03
2023-02-03T03:53:34.970Z,8.93
2023-02-03T03:56:05.778Z,7.87
2023-02-03T03:58:33.767Z,6.87
2023-02-03T04:01:04.378Z,12.07
2023-02-03T04:03:38.520Z,7.83
2023-02-03T04:06:07.162Z,14.20
2023-02-03T04:08:34.788Z,10.38
2023-02-03T04:11:02.507Z,8.30
2023-02-03T04:13:30.183Z,9.40
2023-02-03T04:15:57.824Z,6.13
2023-02-03T04:18:25.502Z,10.13
2023-02-03T04:20:54.461Z,8.63
2023-02-03T04:23:22.114Z,9.23
2023-02-03T04:25:49.690Z,9.67
2023-02-03T04:28:17.513Z,8.67
2023-02-03T04:30:45.210Z,10.52
2023-02-03T04:33:12.818Z,6.83
2023-02-03T04:35:40.451Z,12.70
2023-02-03T04:38:09.453Z,7.47
2023-02-03T04:40:37.055Z,10.30
2023-02-03T04:43:08.230Z,10.37
2023-02-03T04:45:35.873Z,11.07
2023-02-03T04:48:04.622Z,9.07
2023-02-03T04:50:32.339Z,10.30
2023-02-03T04:53:01.201Z,8.27
2023-02-03T04:55:30.405Z,8.60
2023-02-03T04:57:58.576Z,7.47
2023-02-03T05:00:26.629Z,10.95
2023-02-03T05:02:54.663Z,13.32
2023-02-03T05:05:22.727Z,11.43
2023-02-03T05:07:50.402Z,9.63
2023-02-03T05:10:18.131Z,14.33
2023-02-03T05:12:47.229Z,11.70
2023-02-03T05:15:15.178Z,9.60
2023-02-03T05:17:42.787Z,10.00
2023-02-03T05:20:11.809Z,10.80
2023-02-03T05:22:39.490Z,11.83
2023-02-03T05:25:08.066Z,9.30
2023-02-03T05:27:35.672Z,13.32
2023-02-03T05:30:05.050Z,15.50
2023-02-03T05:32:32.663Z,9.03
2023-02-03T05:35:00.348Z,4.37
2023-02-03T05:37:27.977Z,10.83
2023-02-03T05:40:15.582Z,13.27
2023-02-03T05:42:47.026Z,13.83
2023-02-03T05:45:16.361Z,11.73
2023-02-03T05:47:44.210Z,11.37
2023-02-03T05:50:11.838Z,11.07
2023-02-03T05:52:39.481Z,14.03
2023-02-03T05:55:07.497Z,14.60
2023-02-03T05:57:35.094Z,11.23
2023-02-03T06:00:03.017Z,12.73
2023-02-03T06:02:31.915Z,10.18
2023-02-03T06:04:59.505Z,12.03
2023-02-03T06:07:27.112Z,9.77
2023-02-03T06:09:54.760Z,12.83
2023-02-03T06:12:22.655Z,8.63
2023-02-03T06:14:50.295Z,13.27
2023-02-03T06:17:17.925Z,11.73
2023-02-03T06:19:46.833Z,11.77
2023-02-03T06:22:14.418Z,13.07
2023-02-03T06:24:41.972Z,18.43
2023-02-03T06:27:09.536Z,9.57
2023-02-03T06:29:37.148Z,10.93
2023-02-03T06:32:05.077Z,16.63
2023-02-03T06:34:33.097Z,11.48
2023-02-03T06:37:02.305Z,11.25
2023-02-03T06:39:29.884Z,12.13
2023-02-03T06:41:57.605Z,16.57
2023-02-03T06:44:25.227Z,11.33
2023-02-03T06:46:53.383Z,16.77
2023-02-03T06:49:21.074Z,9.68
2023-02-03T06:51:48.953Z,10.90
2023-02-03T06:54:17.928Z,11.02
2023-02-03T06:56:45.552Z,11.90
2023-02-03T06:59:13.272Z,9.43
2023-02-03T07:01:41.021Z,16.90
2023-02-03T07:04:10.076Z,17.93
2023-02-03T07:06:37.785Z,12.03
2023-02-03T07:09:07.241Z,20.27
2023-02-03T07:11:36.259Z,14.07
2023-02-03T07:14:03.975Z,12.93
2023-02-03T07:16:32.666Z,13.57
2023-02-03T07:19:00.286Z,16.73
2023-02-03T07:21:27.897Z,13.90
2023-02-03T07:23:55.509Z,14.93
2023-02-03T07:26:25.167Z,14.07
2023-02-03T07:28:54.505Z,15.77
2023-02-03T07:31:22.414Z,17.60
2023-02-03T07:33:50.052Z,15.20
2023-02-03T07:36:17.651Z,16.60
2023-02-03T07:38:45.242Z,16.77
2023-02-03T07:41:12.871Z,15.23
2023-02-03T07:43:40.506Z,15.07
2023-02-03T07:46:09.532Z,14.67
2023-02-03T07:48:37.171Z,10.10
2023-02-03T07:51:05.441Z,14.67
2023-02-03T07:53:33.798Z,11.70
2023-02-03T07:56:02.076Z,19.90
2023-02-03T07:58:30.349Z,15.65
2023-02-03T08:00:58.933Z,12.00
2023-02-03T08:03:27.956Z,11.70
2023-02-03T08:05:55.543Z,17.13
2023-02-03T08:08:23.164Z,13.20
2023-02-03T08:10:50.839Z,9.10
2023-02-03T08:13:18.402Z,15.67
2023-02-03T08:15:46.057Z,14.57
2023-02-03T08:18:14.136Z,15.97
2023-02-03T08:20:43.099Z,15.95
2023-02-03T08:23:10.709Z,18.80
2023-02-03T08:25:38.329Z,14.73
2023-02-03T08:28:05.941Z,10.93
2023-02-03T08:30:33.559Z,16.17
2023-02-03T08:33:01.158Z,11.93
2023-02-03T08:35:28.846Z,9.03
2023-02-03T08:37:57.779Z,21.43
2023-02-03T08:40:25.652Z,14.07
2023-02-03T08:42:54.016Z,14.55
2023-02-03T08:45:21.605Z,12.25
2023-02-03T08:47:49.216Z,15.23
2023-02-03T08:50:17.189Z,13.97
2023-02-03T08:52:44.871Z,14.40
2023-02-03T08:55:13.849Z,11.40
2023-02-03T08:57:42.082Z,23.80
2023-02-03T09:00:11.227Z,11.02
2023-02-03T09:02:38.828Z,15.93
2023-02-03T09:05:07.367Z,14.87
2023-02-03T09:07:35.036Z,13.57
2023-02-03T09:10:02.825Z,14.70
2023-02-03T09:12:31.923Z,16.00
2023-02-03T09:14:59.616Z,12.37
2023-02-03T09:17:27.947Z,13.83
2023-02-03T09:19:55.579Z,11.85
2023-02-03T09:22:23.193Z,14.23
2023-02-03T09:24:51.589Z,13.70
2023-02-03T09:27:19.205Z,12.43
2023-02-03T09:29:48.172Z,12.87
2023-02-03T09:32:15.976Z,14.23
2023-02-03T09:34:43.701Z,14.90
2023-02-03T09:37:11.392Z,10.80
2023-02-03T09:39:39.004Z,18.23
2023-02-03T09:42:51.072Z,12.87
2023-02-03T09:45:26.770Z,14.50
2023-02-03T09:47:57.220Z,16.40
2023-02-03T09:50:27.457Z,11.73
2023-02-03T09:52:56.573Z,11.70
2023-02-03T09:55:30.920Z,11.50
2023-02-03T09:58:04.597Z,10.70
2023-02-03T10:00:37.281Z,12.60
2023-02-03T10:03:09.616Z,13.70
2023-02-03T10:05:53.766Z,15.37
2023-02-03T10:08:30.759Z,10.40
2023-02-03T10:11:12.256Z,10.43
2023-02-03T10:13:48.486Z,13.07
2023-02-03T10:16:31.092Z,10.57
2023-02-03T10:19:04.158Z,8.10
2023-02-03T10:21:37.608Z,7.17
2023-02-03T10:24:10.668Z,9.57
2023-02-03T10:26:41.153Z,9.70
2023-02-03T10:29:19.265Z,12.47
2023-02-03T10:31:49.378Z,12.80
2023-02-03T10:34:19.692Z,15.17
2023-02-03T10:36:56.701Z,11.20
2023-02-03T10:39:40.539Z,14.80
2023-02-03T10:42:09.521Z,10.77
2023-02-03T10:44:40.981Z,12.87
2023-02-03T10:47:22.911Z,7.17
2023-02-03T10:49:52.790Z,12.03
2023-02-03T10:52:29.707Z,8.33
2023-02-03T10:54:59.311Z,11.13
2023-02-03T10:57:29.628Z,14.13
2023-02-03T11:00:09.268Z,12.00
2023-02-03T11:02:38.515Z,8.33
2023-02-03T11:05:21.479Z,10.03
2023-02-03T11:07:49.899Z,9.63
2023-02-03T11:10:34.149Z,10.13
2023-02-03T11:13:19.312Z,13.27
2023-02-03T11:15:54.169Z,9.53
2023-02-03T11:18:38.801Z,9.07
2023-02-03T11:21:13.972Z,10.43
2023-02-03T11:23:52.412Z,7.23
2023-02-03T11:26:23.801Z,11.88
2023-02-03T11:28:53.638Z,16.33
2023-02-03T11:31:24.749Z,12.40
2023-02-03T11:33:57.821Z,11.20
2023-02-03T11:36:28.256Z,10.27
2023-02-03T11:39:20.918Z,12.13
2023-02-03T11:41:49.646Z,11.93
2023-02-03T11:46:48.947Z,13.60
2023-02-03T11:49:52.813Z,7.27
2023-02-03T11:52:45.949Z,10.20
2023-02-03T11:55:25.120Z,9.90
2023-02-03T11:58:10.205Z,13.20
2023-02-03T12:00:48.442Z,8.60
2023-02-03T12:03:41.548Z,12.05
2023-02-03T12:06:34.465Z,11.80
2023-02-03T12:09:21.694Z,14.23
2023-02-03T12:12:14.211Z,9.23
2023-02-03T12:14:54.183Z,10.03
2023-02-03T12:17:42.306Z,10.53
2023-02-03T12:20:40.485Z,13.18
2023-02-03T12:23:23.696Z,14.57
2023-02-03T12:26:04.734Z,14.27
2023-02-03T12:28:45.105Z,15.73
2023-02-03T12:31:19.522Z,12.67
2023-02-03T12:33:51.589Z,15.17
2023-02-03T12:36:23.728Z,15.37
2023-02-03T12:38:59.132Z,16.73
2023-02-03T12:41:31.585Z,19.57
2023-02-03T12:44:02.888Z,16.90
2023-02-03T12:46:36.233Z,14.27
2023-02-03T12:49:11.663Z,13.77
2023-02-03T12:51:43.591Z,17.07
2023-02-03T12:54:32.084Z,14.53
2023-02-03T12:57:10.256Z,12.05
2023-02-03T12:59:41.322Z,13.32
2023-02-03T13:02:19.052Z,16.57
2023-02-03T13:04:56.876Z,14.60
2023-02-03T13:07:28.615Z,15.10
2023-02-03T13:10:03.654Z,15.33
2023-02-03T13:12:34.837Z,12.53
2023-02-03T13:15:13.730Z,14.90
2023-02-03T13:17:47.637Z,14.63
2023-02-03T13:20:20.071Z,13.23
2023-02-03T13:22:47.840Z,18.40
2023-02-03T13:25:24.126Z,15.17
2023-02-03T13:28:00.196Z,16.03
2023-02-03T13:30:41.155Z,22.33
2023-02-03T13:33:31.045Z,13.20
2023-02-03T13:36:09.828Z,20.60
2023-02-03T13:39:10.295Z,23.57
2023-02-03T13:41:47.281Z,16.70
2023-02-03T13:44:19.405Z,20.63
2023-02-03T13:46:50.491Z,20.40
2023-02-03T13:49:25.487Z,19.97
2023-02-03T13:51:53.270Z,22.63
2023-02-03T13:54:27.419Z,23.77
2023-02-03T13:56:59.820Z,17.93
2023-02-03T13:59:40.839Z,13.77
2023-02-03T14:02:43.056Z,19.40
2023-02-03T14:05:41.547Z,16.63
2023-02-03T14:11:41.307Z,18.37
2023-02-03T14:15:03.192Z,16.80
2023-02-03T14:18:27.106Z,18.33
2023-02-03T14:21:23.404Z,22.23
2023-02-03T14:24:04.115Z,24.17
2023-02-03T14:26:41.471Z,22.53
2023-02-03T14:29:11.341Z,22.33
2023-02-03T14:31:59.846Z,23.57
2023-02-03T14:34:36.040Z,18.30
2023-02-03T14:37:13.607Z,24.40
2023-02-03T14:40:06.926Z,23.30
2023-02-03T14:43:11.105Z,25.77
2023-02-03T14:46:07.346Z,25.47
2023-02-03T14:48:49.195Z,23.30
2023-02-03T14:51:28.457Z,22.57
2023-02-03T14:54:18.142Z,24.47
2023-02-03T14:57:08.565Z,24.13
2023-02-03T14:59:40.688Z,22.33
2023-02-03T15:02:19.055Z,24.20
2023-02-03T15:04:50.311Z,23.85
2023-02-03T15:07:41.689Z,19.10
2023-02-03T15:10:14.346Z,20.20
2023-02-03T15:12:46.819Z,23.97
2023-02-03T15:15:19.800Z,25.27
2023-02-03T15:17:47.426Z,22.83
2023-02-03T15:20:34.736Z,27.27
2023-02-03T15:23:03.051Z,21.97
2023-02-03T15:25:32.976Z,26.17
2023-02-03T15:28:16.817Z,23.43
2023-02-03T15:30:45.482Z,24.37
2023-02-03T15:33:16.226Z,28.17
2023-02-03T15:35:48.072Z,26.80
2023-02-03T15:38:18.432Z,28.83
2023-02-03T15:40:49.781Z,22.87
2023-02-03T15:43:22.159Z,25.40
2023-02-03T15:46:00.334Z,28.17
2023-02-03T15:48:36.627Z,26.15
2023-02-03T15:51:12.445Z,26.17
2023-02-03T15:53:49.582Z,21.00
2023-02-03T15:56:22.959Z,25.17
2023-02-03T15:58:51.158Z,23.20
2023-02-03T16:01:25.960Z,29.17
2023-02-03T16:03:55.800Z,24.67
2023-02-03T16:06:30.278Z,22.17
2023-02-03T16:08:59.564Z,33.27
2023-02-03T16:11:31.650Z,24.13
2023-02-03T16:14:01.407Z,24.53
2023-02-03T16:16:32.612Z,23.60
2023-02-03T16:19:03.797Z,21.97
2023-02-03T16:21:35.918Z,31.13
2023-02-03T16:24:05.088Z,25.20
2023-02-03T16:26:36.547Z,23.93
2023-02-03T16:29:30.544Z,24.73
2023-02-03T16:32:16.929Z,21.07
2023-02-03T16:35:02.289Z,28.13
2023-02-03T16:37:50.953Z,25.83
2023-02-03T16:43:23.928Z,20.93
2023-02-03T16:46:13.623Z,20.17
2023-02-03T16:51:30.377Z,27.17
2023-02-03T16:53:59.422Z,17.33
2023-02-03T16:56:27.061Z,21.83
2023-02-03T16:58:54.634Z,25.53
2023-02-03T17:01:22.385Z,25.07
2023-02-03T17:03:50.828Z,22.10
2023-02-03T17:06:18.453Z,25.52
2023-02-03T17:08:46.062Z,22.30
2023-02-03T17:11:18.253Z,19.13
2023-02-03T17:13:47.140Z,25.23
2023-02-03T17:16:17.883Z,25.07
2023-02-03T17:18:46.291Z,26.23
2023-02-03T17:21:16.335Z,23.63
2023-02-03T17:23:44.319Z,20.23
2023-02-03T17:26:12.064Z,19.40
2023-02-03T17:28:43.025Z,22.80
2023-02-03T17:31:14.111Z,25.60
2023-02-03T17:33:42.003Z,24.37
2023-02-03T17:36:12.214Z,23.70
2023-02-03T17:55:17.464Z,21.97
2023-02-03T17:57:45.126Z,23.30
2023-02-03T18:00:15.009Z,28.63
2023-02-03T18:02:43.609Z,30.13
2023-02-03T18:05:11.816Z,22.10
2023-02-03T18:07:39.498Z,32.22
2023-02-03T18:10:08.737Z,26.13
2023-02-03T18:12:36.440Z,36.80
2023-02-03T18:15:04.343Z,28.43
2023-02-03T18:17:33.467Z,25.98
2023-02-03T18:20:02.604Z,25.73
2023-02-03T18:22:30.299Z,30.07
2023-02-03T18:24:58.137Z,25.17
2023-02-03T18:27:25.906Z,31.70
2023-02-03T18:29:53.584Z,24.90
2023-02-03T18:32:21.236Z,26.80
2023-02-03T18:34:50.305Z,29.20
2023-02-03T18:37:18.163Z,29.50
2023-02-03T18:39:45.859Z,25.43
2023-02-03T18:42:13.683Z,30.37
2023-02-03T18:44:42.212Z,21.10
2023-02-03T18:47:09.876Z,23.60
2023-02-03T18:49:38.072Z,25.03
2023-02-03T18:52:07.472Z,25.65
2023-02-03T18:54:35.155Z,22.87
2023-02-03T18:57:04.665Z,26.33
2023-02-03T18:59:32.620Z,24.50
2023-02-03T19:02:01.238Z,25.13
2023-02-03T19:04:29.350Z,26.50
2023-02-03T19:06:57.044Z,25.60
2023-02-03T19:09:26.084Z,25.97
2023-02-03T19:11:54.087Z,30.07
2023-02-03T19:14:23.501Z,28.25
2023-02-03T19:16:53.084Z,20.67
2023-02-03T19:19:21.265Z,34.47
2023-02-03T19:21:49.638Z,32.95
2023-02-03T19:24:17.477Z,26.63
2023-02-03T19:26:46.625Z,23.87
2023-02-03T19:29:14.854Z,23.60
2023-02-03T19:31:42.947Z,26.13
2023-02-03T19:34:12.095Z,23.83
2023-02-03T19:36:39.879Z,25.33
2023-02-03T19:39:07.731Z,34.83
2023-02-03T19:41:36.508Z,26.37
2023-02-03T19:46:37.105Z,29.43
2023-02-03T19:49:06.586Z,25.13
2023-02-03T19:51:34.788Z,29.97
2023-02-03T19:54:02.730Z,22.25
2023-02-03T19:56:30.607Z,29.38
2023-02-03T19:58:58.986Z,27.27
2023-02-03T20:01:29.356Z,24.50
2023-02-03T20:03:58.535Z,24.20
2023-02-03T20:06:26.372Z,34.47
2023-02-03T20:08:56.008Z,18.53
2023-02-03T20:11:23.791Z,33.50
2023-02-03T20:13:51.858Z,23.40
2023-02-03T20:16:19.980Z,24.25
2023-02-03T20:18:49.304Z,22.52
2023-02-03T20:21:17.015Z,25.87
2023-02-03T20:23:44.700Z,26.93
2023-02-03T20:26:14.184Z,24.93
2023-02-03T20:28:42.265Z,31.13
2023-02-03T20:31:09.973Z,33.70
2023-02-03T20:33:37.639Z,25.90
2023-02-03T20:36:07.617Z,29.40
2023-02-03T20:38:35.305Z,21.53
2023-02-03T20:41:02.986Z,34.07
2023-02-03T20:43:31.841Z,39.43
2023-02-03T20:48:27.438Z,32.27
2023-02-03T20:50:55.044Z,29.83
2023-02-03T20:53:26.013Z,26.80
2023-02-03T20:55:58.018Z,21.20
2023-02-03T20:58:27.256Z,24.20
2023-02-03T21:00:57.258Z,20.53
2023-02-03T21:03:43.409Z,25.53
2023-02-03T21:06:14.515Z,30.07
2023-02-03T21:08:44.241Z,26.77
2023-02-03T21:11:14.845Z,21.30
2023-02-03T21:13:43.604Z,19.80
2023-02-03T21:18:49.036Z,27.03
2023-02-03T21:21:20.046Z,19.43
2023-02-03T21:23:49.089Z,17.87
2023-02-03T21:26:19.897Z,22.33
2023-02-03T21:28:49.738Z,23.93
2023-02-03T21:31:21.886Z,29.33
2023-02-03T21:33:50.007Z,18.07
2023-02-03T21:36:18.797Z,17.70
2023-02-03T21:41:18.471Z,21.55
2023-02-03T21:43:47.607Z,25.57
2023-02-03T21:46:19.768Z,22.47
2023-02-03T21:48:51.495Z,18.13
2023-02-03T21:51:22.588Z,17.53
2023-02-03T21:53:56.197Z,21.57
2023-02-03T21:56:27.456Z,18.83
2023-02-03T21:58:58.321Z,19.17
2023-02-03T22:01:26.769Z,19.47
2023-02-03T22:03:55.967Z,18.52
2023-02-03T22:06:28.918Z,25.97
2023-02-03T22:08:58.601Z,20.00
2023-02-03T22:11:29.359Z,22.63
2023-02-03T22:13:57.502Z,17.20
2023-02-03T22:16:25.896Z,19.27
2023-02-03T22:18:53.695Z,27.23
2023-02-03T22:21:21.512Z,21.60
2023-02-03T22:23:49.483Z,12.40
2023-02-03T22:26:18.017Z,19.13
2023-02-03T22:28:47.592Z,22.00
2023-02-03T22:31:16.136Z,17.60
2023-02-03T22:33:44.768Z,23.10
2023-02-03T22:36:12.821Z,22.40
2023-02-03T22:38:41.380Z,25.65
2023-02-03T22:41:11.968Z,28.17
2023-02-03T22:43:40.040Z,19.73
2023-02-03T22:46:09.627Z,20.15
2023-02-03T22:48:37.393Z,17.23
2023-02-03T22:51:05.256Z,18.90
2023-02-03T22:53:34.580Z,30.67
2023-02-03T22:56:02.357Z,17.93
2023-02-03T22:58:30.436Z,21.67
2023-02-03T23:00:58.051Z,23.73
2023-02-03T23:03:27.128Z,24.97
2023-02-03T23:05:56.390Z,27.13
2023-02-03T23:08:24.316Z,20.47
2023-02-03T23:10:51.976Z,23.40
2023-02-03T23:13:19.869Z,18.20
2023-02-03T23:15:47.645Z,23.55
2023-02-03T23:18:15.341Z,27.33
2023-02-03T23:20:44.360Z,24.07
2023-02-03T23:23:12.036Z,21.17
2023-02-03T23:25:39.653Z,22.17
2023-02-03T23:28:07.335Z,18.03
2023-02-03T23:30:35.055Z,23.37
2023-02-03T23:33:02.878Z,20.33
2023-02-03T23:35:49.027Z,25.40
2023-02-03T23:38:18.467Z,23.67
2023-02-03T23:40:47.708Z,28.23
2023-02-03T23:43:16.077Z,24.80
2023-02-03T23:45:43.750Z,23.98
2023-02-03T23:48:12.447Z,26.30
2023-02-03T23:50:40.212Z,23.08
2023-02-03T23:53:07.840Z,24.00
2023-02-03T23:55:37.289Z,19.40
2023-02-03T23:58:05.919Z,22.47
